Time;durP1;ratioP1;P1;durP2;ratioP2;P2;SDS_P1;SDS_P2;PMS_P1;PMS_P2;Temp;Humidity;BMP_temperature;BMP_pressure;BME280_temperature;BME280_humidity;BME280_pressure;Samples;Min_cycle;Max_cycle;Signal;HPM_P1;HPM_P2
2022/03/02 00:00:14;;;;;;;25.17;11.18;;;;;;;1.11;65.27;101914.81;4934206;29;20542;-74
2022/03/02 00:02:42;;;;;;;20.75;11.40;;;;;;;1.04;65.23;101902.03;4933965;29;20052;-74
2022/03/02 00:05:10;;;;;;;23.38;12.15;;;;;;;1.00;66.30;101900.75;4934963;29;20044;-73
2022/03/02 00:07:38;;;;;;;25.17;11.15;;;;;;;0.92;66.01;101906.19;4934368;29;20059;-74
2022/03/02 00:10:06;;;;;;;23.38;10.77;;;;;;;0.91;66.24;101907.22;4934325;29;20059;-74
2022/03/02 00:12:34;;;;;;;18.55;10.15;;;;;;;0.91;66.04;101901.81;4933810;29;20047;-74
2022/03/02 00:15:03;;;;;;;18.23;10.93;;;;;;;0.91;66.02;101907.22;4934915;29;20043;-74
2022/03/02 00:17:32;;;;;;;22.73;10.38;;;;;;;0.88;67.28;101910.28;4934777;29;20051;-74
2022/03/02 00:20:00;;;;;;;19.30;10.70;;;;;;;0.86;66.51;101905.06;4933879;29;20047;-74
2022/03/02 00:22:27;;;;;;;22.40;11.68;;;;;;;0.89;65.98;101903.88;4933681;29;20044;-74
2022/03/02 00:24:55;;;;;;;17.88;10.43;;;;;;;0.83;67.29;101904.59;4933198;29;20384;-74
2022/03/02 00:27:23;;;;;;;20.83;10.55;;;;;;;0.86;66.41;101907.75;4934342;29;20054;-74
2022/03/02 00:29:52;;;;;;;23.73;10.38;;;;;;;0.75;66.93;101900.97;4933906;29;20066;-74
2022/03/02 00:32:19;;;;;;;18.73;10.48;;;;;;;0.65;66.85;101900.38;4934215;29;20052;-74
2022/03/02 00:34:47;;;;;;;19.00;11.00;;;;;;;0.60;67.29;101906.31;4933953;29;20055;-74
2022/03/02 00:37:15;;;;;;;19.58;10.18;;;;;;;0.56;67.73;101898.75;4933606;29;20051;-74
2022/03/02 00:39:45;;;;;;;22.33;10.57;;;;;;;0.48;67.89;101908.56;4934734;29;20590;-74
2022/03/02 00:42:13;;;;;;;22.35;10.57;;;;;;;0.53;67.78;101905.31;4934245;29;20056;-74
2022/03/02 00:44:40;;;;;;;19.98;10.02;;;;;;;0.59;67.64;101895.69;4933646;29;20051;-74
2022/03/02 00:47:09;;;;;;;22.67;10.57;;;;;;;0.64;66.78;101896.00;4934733;29;20044;-74
2022/03/02 00:49:38;;;;;;;16.58;9.55;;;;;;;0.66;66.98;101893.94;4933768;29;20051;-74
2022/03/02 00:52:09;;;;;;;17.15;9.55;;;;;;;0.73;67.73;101894.06;4933853;29;20410;-74
2022/03/02 00:54:37;;;;;;;17.40;9.38;;;;;;;0.78;66.06;101891.69;4933541;29;20052;-74
2022/03/02 00:57:05;;;;;;;18.58;9.00;;;;;;;0.84;65.76;101884.72;4933133;29;20054;-74
2022/03/02 00:59:33;;;;;;;16.38;8.52;;;;;;;0.89;65.72;101887.69;4917128;29;20047;-74
2022/03/02 01:02:01;;;;;;;14.38;8.40;;;;;;;0.87;65.85;101884.34;4934284;29;20055;-74
2022/03/02 01:04:29;;;;;;;17.08;8.77;;;;;;;0.87;65.12;101879.78;4934357;29;20051;-74
2022/03/02 01:06:57;;;;;;;22.48;9.30;;;;;;;0.91;65.01;101881.09;4933832;29;20071;-74
2022/03/02 01:09:26;;;;;;;16.55;9.02;;;;;;;0.91;65.65;101875.72;4933780;29;20079;-74
2022/03/02 01:11:54;;;;;;;20.23;9.13;;;;;;;0.85;65.41;101873.75;4917253;29;20056;-74
2022/03/02 01:14:22;;;;;;;15.98;8.77;;;;;;;0.83;65.49;101872.25;4934148;29;20514;-74
2022/03/02 01:16:51;;;;;;;14.75;8.70;;;;;;;0.81;65.46;101877.81;4933545;29;20048;-74
2022/03/02 01:19:19;;;;;;;16.73;8.73;;;;;;;0.77;65.39;101869.28;4934340;29;20052;-74
2022/03/02 01:21:47;;;;;;;16.33;8.60;;;;;;;0.71;66.47;101864.59;4934064;29;20518;-74
2022/03/02 01:24:15;;;;;;;18.17;8.85;;;;;;;0.61;66.66;101858.63;4933947;29;20055;-74
2022/03/02 01:26:46;;;;;;;15.85;8.85;;;;;;;0.62;66.90;101863.84;4933687;29;20063;-74
2022/03/02 01:29:14;;;;;;;16.88;8.57;;;;;;;0.57;66.47;101852.78;4934276;29;20047;-74
2022/03/02 01:31:42;;;;;;;19.52;8.73;;;;;;;0.53;67.22;101856.84;4934229;29;20054;-74
2022/03/02 01:34:10;;;;;;;21.55;8.38;;;;;;;0.53;66.91;101851.44;4933808;29;20047;-74
2022/03/02 01:36:38;;;;;;;17.42;9.07;;;;;;;0.48;67.29;101843.91;4936685;29;20055;-74
2022/03/02 01:39:05;;;;;;;19.95;9.50;;;;;;;0.45;68.42;101848.84;4937519;29;20394;-74
2022/03/02 01:41:34;;;;;;;16.33;8.18;;;;;;;0.55;66.62;101835.09;4937377;29;20411;-74
2022/03/02 01:44:02;;;;;;;16.67;8.07;;;;;;;0.45;67.08;101838.91;4936449;29;20043;-74
2022/03/02 01:46:30;;;;;;;14.23;7.75;;;;;;;0.41;67.30;101845.66;4937688;29;20058;-74
2022/03/02 01:48:58;;;;;;;18.23;9.23;;;;;;;0.35;67.69;101838.31;4920420;29;20411;-74
2022/03/02 01:51:26;;;;;;;17.55;8.57;;;;;;;0.34;68.29;101839.34;4920181;29;20051;-74
2022/03/02 01:53:54;;;;;;;17.02;8.63;;;;;;;0.45;67.65;101828.13;4920478;29;20051;-74
2022/03/02 01:56:22;;;;;;;13.65;8.20;;;;;;;0.45;67.96;101825.44;4920439;29;20117;-74
2022/03/02 01:58:50;;;;;;;13.73;8.75;;;;;;;0.63;67.40;101825.09;4937021;29;20059;-74
2022/03/02 02:01:18;;;;;;;16.80;8.48;;;;;;;0.73;67.25;101824.84;4937694;29;20054;-74
2022/03/02 02:03:49;;;;;;;15.55;8.55;;;;;;;0.57;67.51;101815.06;4936215;29;20056;-74
2022/03/02 02:06:18;;;;;;;14.45;8.63;;;;;;;0.50;67.69;101812.25;4936291;29;20040;-74
2022/03/02 02:08:46;;;;;;;18.08;9.95;;;;;;;0.35;68.53;101811.38;4936523;29;20052;-74
2022/03/02 02:11:15;;;;;;;19.63;9.95;;;;;;;0.26;68.79;101810.59;4919649;29;20135;-74
2022/03/02 02:13:43;;;;;;;20.95;10.25;;;;;;;0.18;69.89;101811.50;4936662;29;20063;-74
2022/03/02 02:16:13;;;;;;;15.85;9.02;;;;;;;0.10;69.42;101807.00;4936077;29;20122;-74
2022/03/02 02:18:41;;;;;;;17.67;9.50;;;;;;;0.22;70.27;101807.44;4936209;29;20502;-74
2022/03/02 02:21:10;;;;;;;17.15;9.80;;;;;;;0.14;71.93;101804.78;4936269;29;20056;-74
2022/03/02 02:23:39;;;;;;;20.00;10.32;;;;;;;0.06;71.22;101799.47;4936115;29;20056;-74
2022/03/02 02:26:07;;;;;;;17.85;9.75;;;;;;;0.04;70.26;101788.06;4935885;29;20059;-74
2022/03/02 02:28:35;;;;;;;18.25;9.60;;;;;;;-0.03;71.24;101796.84;4919554;29;20055;-74
2022/03/02 02:31:04;;;;;;;16.80;9.98;;;;;;;-0.06;70.82;101793.66;4936715;29;20055;-74
2022/03/02 02:33:32;;;;;;;22.17;9.45;;;;;;;-0.13;70.75;101788.19;4936708;29;20052;-74
2022/03/02 02:36:00;;;;;;;20.52;9.65;;;;;;;-0.19;71.19;101784.31;4922988;29;20055;-74
2022/03/02 02:38:29;;;;;;;17.40;9.63;;;;;;;-0.19;72.60;101780.81;4936225;29;20411;-74
2022/03/02 02:40:57;;;;;;;15.00;8.82;;;;;;;-0.17;71.64;101786.84;4936350;29;20483;-74
2022/03/02 02:43:26;;;;;;;20.67;10.25;;;;;;;-0.10;71.88;101776.22;4936207;29;20055;-74
2022/03/02 02:45:54;;;;;;;21.60;10.27;;;;;;;-0.12;71.59;101773.69;4935993;29;20424;-74
2022/03/02 02:48:22;;;;;;;20.92;9.77;;;;;;;-0.14;71.76;101775.75;4935448;29;20051;-74
2022/03/02 02:50:51;;;;;;;23.48;10.25;;;;;;;-0.20;71.55;101776.47;4936026;29;20403;-74
2022/03/02 02:53:18;;;;;;;24.88;9.50;;;;;;;-0.22;72.45;101781.16;4935402;29;20048;-74
2022/03/02 02:55:47;;;;;;;19.88;10.18;;;;;;;-0.25;73.17;101784.22;4935421;29;20055;-73
2022/03/02 02:58:15;;;;;;;18.75;9.63;;;;;;;-0.29;73.60;101768.41;4935078;29;20415;-74
2022/03/02 03:00:46;;;;;;;16.67;9.60;;;;;;;-0.30;74.43;101779.34;4935448;29;20047;-74
2022/03/02 03:03:14;;;;;;;19.25;11.13;;;;;;;-0.31;74.73;101773.16;4935385;29;20044;-73
2022/03/02 03:05:44;;;;;;;17.00;10.18;;;;;;;-0.25;74.21;101768.06;4935458;29;20095;-74
2022/03/02 03:08:13;;;;;;;18.45;10.18;;;;;;;-0.28;73.87;101775.47;4934975;29;20054;-74
2022/03/02 03:10:43;;;;;;;23.42;10.23;;;;;;;-0.30;73.93;101768.59;4935731;29;20398;-73
2022/03/02 03:13:11;;;;;;;17.70;9.65;;;;;;;-0.30;73.95;101756.00;4935790;29;20040;-74
2022/03/02 03:15:40;;;;;;;23.38;10.52;;;;;;;-0.30;73.82;101760.53;4935879;29;20070;-74
2022/03/02 03:18:08;;;;;;;19.90;9.98;;;;;;;-0.28;73.02;101756.63;4935803;29;20480;-74
2022/03/02 03:20:36;;;;;;;19.52;10.00;;;;;;;-0.29;72.90;101756.84;4935197;29;20045;-74
2022/03/02 03:23:08;;;;;;;22.13;10.48;;;;;;;-0.25;73.58;101755.44;4934822;29;20043;-74
2022/03/02 03:25:36;;;;;;;19.25;10.57;;;;;;;-0.30;73.37;101745.22;4934898;29;20055;-74
2022/03/02 03:28:05;;;;;;;20.23;10.20;;;;;;;-0.32;73.39;101747.28;4934819;29;20518;-74
2022/03/02 03:30:33;;;;;;;18.38;10.10;;;;;;;-0.36;73.74;101751.31;4935144;29;20048;-74
2022/03/02 03:33:04;;;;;;;22.48;10.45;;;;;;;-0.36;74.10;101755.84;4935223;29;20055;-74
2022/03/02 03:35:34;;;;;;;18.27;9.77;;;;;;;-0.39;73.78;101766.97;4934710;29;20047;-73
2022/03/02 03:38:02;;;;;;;23.17;10.85;;;;;;;-0.29;72.74;101756.84;4934706;29;20060;-74
2022/03/02 03:40:30;;;;;;;17.77;9.00;;;;;;;-0.08;72.23;101769.63;4934607;29;20056;-74
2022/03/02 03:42:58;;;;;;;17.85;9.10;;;;;;;0.11;71.00;101762.09;4934541;29;20052;-74
2022/03/02 03:45:26;;;;;;;18.70;9.50;;;;;;;0.18;70.84;101759.50;4935374;29;20048;-73
2022/03/02 03:47:54;;;;;;;17.65;9.23;;;;;;;0.19;70.39;101753.94;4921914;29;20058;-74
2022/03/02 03:50:22;;;;;;;19.25;9.82;;;;;;;0.20;71.26;101757.47;4934872;29;20063;-74
2022/03/02 03:52:50;;;;;;;20.40;10.00;;;;;;;0.21;70.98;101768.06;4934515;29;20055;-74
2022/03/02 03:55:19;;;;;;;22.88;10.23;;;;;;;0.17;71.98;101766.75;4934907;29;20048;-74
2022/03/02 03:57:47;;;;;;;20.67;10.18;;;;;;;0.25;71.97;101763.16;4933441;29;20059;-73
2022/03/02 04:00:18;;;;;;;23.92;11.05;;;;;;;0.33;72.51;101765.78;4934798;29;20059;-74
2022/03/02 04:02:47;;;;;;;23.13;11.52;;;;;;;0.16;73.05;101770.47;4935137;29;20047;-74
2022/03/02 04:05:16;;;;;;;23.00;11.68;;;;;;;0.13;74.19;101766.28;4934318;29;20052;-74
2022/03/02 04:07:46;;;;;;;21.00;11.13;;;;;;;0.12;73.06;101766.47;4934071;29;20043;-73
2022/03/02 04:10:15;;;;;;;22.92;11.40;;;;;;;0.08;72.86;101759.75;4934194;29;20047;-74
2022/03/02 04:12:45;;;;;;;27.80;12.65;;;;;;;0.02;73.20;101765.84;4918016;29;20051;-74
2022/03/02 04:15:13;;;;;;;19.25;11.40;;;;;;;0.05;73.48;101768.19;4933948;29;20059;-73
2022/03/02 04:17:41;;;;;;;29.95;12.65;;;;;;;-0.01;73.77;101758.97;4934084;29;20043;-74
2022/03/02 04:20:10;;;;;;;22.05;12.18;;;;;;;-0.06;74.77;101754.16;4934934;29;20047;-73
2022/03/02 04:22:37;;;;;;;26.58;12.68;;;;;;;-0.03;74.60;101753.78;4934320;29;20058;-74
2022/03/02 04:25:06;;;;;;;20.88;11.48;;;;;;;-0.04;75.35;101740.50;4917021;29;20493;-74
2022/03/02 04:27:34;;;;;;;26.10;13.18;;;;;;;-0.18;75.43;101734.06;4934039;29;20406;-73
2022/03/02 04:30:04;;;;;;;23.90;12.25;;;;;;;-0.51;77.40;101728.88;4917829;29;20044;-73
2022/03/02 04:32:32;;;;;;;24.80;12.68;;;;;;;-0.52;77.66;101722.69;4934324;29;20048;-74
2022/03/02 04:35:00;;;;;;;24.80;13.65;;;;;;;-0.57;78.28;101719.69;4934410;29;20055;-73
2022/03/02 04:37:28;;;;;;;24.85;13.00;;;;;;;-0.72;79.46;101714.22;4933829;29;20055;-74
2022/03/02 04:39:56;;;;;;;24.70;13.50;;;;;;;-0.98;81.05;101721.56;4917215;29;20062;-73
2022/03/02 04:42:24;;;;;;;27.40;14.43;;;;;;;-1.05;81.82;101722.44;4934008;29;20051;-73
2022/03/02 04:44:52;;;;;;;23.05;12.95;;;;;;;-1.17;81.83;101717.44;4917798;29;20074;-73
2022/03/02 04:47:20;;;;;;;23.30;12.50;;;;;;;-1.25;82.31;101725.53;4934529;29;20054;-73
2022/03/02 04:49:48;;;;;;;27.02;13.07;;;;;;;-1.31;82.79;101727.06;4934072;29;20071;-73
2022/03/02 04:52:16;;;;;;;33.50;14.65;;;;;;;-1.38;83.88;101720.69;4933682;29;20055;-73
2022/03/02 04:57:30;;;;;;;27.63;13.77;;;;;;;-1.35;85.27;101725.72;4933411;29;20055;-73
2022/03/02 04:59:58;;;;;;;31.50;13.82;;;;;;;-1.27;84.42;101720.31;4934508;29;20486;-73
2022/03/02 05:02:26;;;;;;;30.88;15.32;;;;;;;-1.20;84.49;101728.53;4933815;29;20051;-73
2022/03/02 05:04:54;;;;;;;30.63;15.43;;;;;;;-1.32;83.42;101729.91;4933809;29;20084;-73
2022/03/02 05:07:22;;;;;;;29.70;14.15;;;;;;;-1.27;83.04;101733.75;4934501;29;20044;-73
2022/03/02 05:09:50;;;;;;;29.15;14.48;;;;;;;-1.28;82.63;101731.25;4934300;29;20051;-73
2022/03/02 05:12:18;;;;;;;30.73;14.95;;;;;;;-1.26;82.36;101735.41;4937096;29;20047;-73
2022/03/02 05:14:46;;;;;;;29.90;14.77;;;;;;;-1.16;81.67;101729.03;4937495;29;20534;-73
2022/03/02 05:17:14;;;;;;;30.13;15.27;;;;;;;-1.11;81.57;101732.84;4936598;29;20047;-73
2022/03/02 05:19:42;;;;;;;28.33;14.65;;;;;;;-1.11;81.31;101727.47;4936733;29;20067;-73
2022/03/02 05:22:10;;;;;;;31.38;14.75;;;;;;;-1.18;81.59;101731.06;4936577;29;20388;-73
2022/03/02 05:24:38;;;;;;;31.25;16.08;;;;;;;-1.23;81.78;101727.03;4937178;29;20051;-73
2022/03/02 05:27:07;;;;;;;30.15;14.43;;;;;;;-1.21;82.55;101729.56;4937333;29;20055;-73
2022/03/02 05:29:35;;;;;;;30.63;14.90;;;;;;;-1.28;82.54;101718.66;4937567;29;20044;-73
2022/03/02 05:32:04;;;;;;;33.22;15.25;;;;;;;-1.27;83.09;101719.50;4937727;29;20043;-73
2022/03/02 05:34:32;;;;;;;27.50;14.48;;;;;;;-1.24;82.13;101728.03;4937353;29;20491;-73
2022/03/02 05:37:00;;;;;;;33.72;15.43;;;;;;;-1.25;81.76;101712.94;4937519;29;20043;-73
2022/03/02 05:39:28;;;;;;;30.90;14.95;;;;;;;-1.18;82.10;101713.06;4937111;29;20096;-74
2022/03/02 05:41:56;;;;;;;31.77;15.30;;;;;;;-1.15;81.54;101719.94;4936430;29;20055;-73
2022/03/02 05:44:24;;;;;;;32.97;15.00;;;;;;;-1.17;81.03;101716.59;4936584;29;20052;-73
2022/03/02 05:46:52;;;;;;;26.10;15.05;;;;;;;-1.18;81.49;101710.38;4937569;29;20411;-73
2022/03/02 05:49:21;;;;;;;35.08;15.57;;;;;;;-1.18;81.82;101718.44;4937076;29;20403;-73
2022/03/02 05:51:49;;;;;;;28.92;14.93;;;;;;;-1.08;81.52;101726.28;4937268;29;20060;-73
2022/03/02 05:54:17;;;;;;;26.60;14.40;;;;;;;-1.05;81.71;101722.44;4936784;29;20060;-73
2022/03/02 05:56:44;;;;;;;30.15;14.82;;;;;;;-1.04;81.94;101726.81;4936442;29;20058;-74
2022/03/02 05:59:14;;;;;;;31.90;14.05;;;;;;;-0.87;80.56;101724.88;4936418;29;20395;-74
2022/03/02 06:01:44;;;;;;;29.55;14.05;;;;;;;-0.79;80.15;101727.53;4936464;29;20116;-74
2022/03/02 06:04:12;;;;;;;28.65;14.48;;;;;;;-0.90;80.43;101730.59;4919824;29;20052;-73
2022/03/02 06:06:41;;;;;;;35.63;16.25;;;;;;;-1.14;81.94;101730.53;4936131;29;20059;-74
2022/03/02 06:09:10;;;;;;;34.33;15.38;;;;;;;-1.35;82.65;101725.72;4919523;29;20399;-73
2022/03/02 06:11:39;;;;;;;31.25;14.95;;;;;;;-1.34;82.82;101722.03;4935861;29;20062;-73
2022/03/02 06:14:07;;;;;;;32.78;15.95;;;;;;;-1.29;83.12;101718.81;4935854;29;20059;-73
2022/03/02 06:16:42;;;;;;;29.00;14.20;;;;;;;-1.33;83.21;101728.25;4937857;29;20402;-73
2022/03/02 06:19:11;;;;;;;33.67;15.27;;;;;;;-1.28;83.40;101724.03;4948513;29;20047;-74
2022/03/02 06:21:43;;;;;;;26.30;15.05;;;;;;;-1.02;82.39;101719.41;4935393;29;20158;-74
2022/03/02 06:24:14;;;;;;;30.58;15.32;;;;;;;-0.95;81.83;101709.63;4936110;29;20052;-74
2022/03/02 06:26:42;;;;;;;30.85;15.07;;;;;;;-0.87;81.82;101724.88;4935618;29;20063;-74
2022/03/02 06:29:11;;;;;;;32.10;15.35;;;;;;;-0.76;81.29;101724.50;4936202;29;20058;-73
2022/03/02 06:31:40;;;;;;;30.20;15.82;;;;;;;-0.63;80.58;101715.84;4918706;29;20110;-74
2022/03/02 06:34:08;;;;;;;28.63;14.05;;;;;;;-0.48;79.05;101720.47;4936298;29;20040;-74
2022/03/02 06:36:36;;;;;;;28.73;14.70;;;;;;;-0.23;78.49;101718.47;4936466;29;20151;-73
2022/03/02 06:39:05;;;;;;;34.40;15.50;;;;;;;0.06;76.64;101719.56;4935223;29;20533;-74
2022/03/02 06:41:41;;;;;;;25.60;14.18;;;;;;;0.39;75.37;101718.44;4935838;29;20051;-74
2022/03/02 06:44:30;;;;;;;30.50;15.32;;;;;;;0.90;73.68;101719.56;4935494;29;20052;-74
2022/03/02 06:47:05;;;;;;;27.52;15.70;;;;;;;1.20;72.73;101719.53;4935917;29;20048;-74
2022/03/02 06:49:58;;;;;;;25.17;13.60;;;;;;;1.20;71.25;101720.38;4935656;29;20047;-73
2022/03/02 06:52:43;;;;;;;25.77;13.15;;;;;;;1.65;68.98;101713.19;4935966;29;20052;-73
2022/03/02 06:55:18;;;;;;;25.27;14.48;;;;;;;1.62;68.46;101714.41;4935731;29;20062;-74
2022/03/02 06:57:50;;;;;;;27.90;13.70;;;;;;;1.71;68.17;101717.81;4935499;29;20055;-73
2022/03/02 07:00:19;;;;;;;22.95;12.10;;;;;;;1.93;67.08;101715.06;4936400;29;20055;-74
2022/03/02 07:02:57;;;;;;;21.75;11.75;;;;;;;1.95;66.36;101724.66;4935843;29;20415;-74
2022/03/02 07:05:26;;;;;;;24.20;12.95;;;;;;;2.36;64.99;101717.75;4935035;29;20055;-74
2022/03/02 07:07:54;;;;;;;22.70;11.63;;;;;;;2.32;64.48;101719.16;4935646;29;20052;-74
2022/03/02 07:10:24;;;;;;;25.25;13.10;;;;;;;2.38;64.36;101723.78;4934991;29;20047;-74
2022/03/02 07:12:52;;;;;;;27.25;13.60;;;;;;;2.39;64.01;101711.94;4935117;29;20495;-74
2022/03/02 07:15:20;;;;;;;30.17;13.88;;;;;;;2.68;64.55;101712.75;4934912;29;20055;-74
2022/03/02 07:17:48;;;;;;;24.60;13.15;;;;;;;2.71;64.08;101716.91;4935149;29;20048;-74
2022/03/02 07:20:16;;;;;;;23.13;12.63;;;;;;;2.88;63.74;101714.72;4935064;29;20077;-74
2022/03/02 07:22:51;;;;;;;24.58;13.98;;;;;;;3.01;62.76;101707.69;4935112;29;20051;-74
2022/03/02 07:25:24;;;;;;;24.52;14.10;;;;;;;3.30;63.71;101711.13;4934984;29;20376;-74
2022/03/02 07:27:54;;;;;;;25.70;15.05;;;;;;;3.45;61.36;101717.22;4934703;29;20055;-75
2022/03/02 07:30:23;;;;;;;29.08;15.13;;;;;;;4.02;58.46;101722.31;4935518;29;20047;-74
2022/03/02 07:32:55;;;;;;;26.10;14.70;;;;;;;3.64;58.69;101720.19;4934513;29;20051;-75
2022/03/02 07:35:25;;;;;;;27.42;14.50;;;;;;;4.01;57.83;101728.78;4935312;29;20044;-75
2022/03/02 07:37:56;;;;;;;30.83;15.80;;;;;;;4.10;57.70;101731.28;4934883;29;20051;-74
2022/03/02 07:40:24;;;;;;;33.58;15.15;;;;;;;4.10;58.71;101734.81;4935327;29;20070;-75
2022/03/02 07:42:52;;;;;;;27.75;15.10;;;;;;;4.76;56.20;101729.56;4941860;29;20058;-75
2022/03/02 07:45:20;;;;;;;26.10;15.15;;;;;;;5.12;56.49;101721.91;4941569;29;20048;-74
2022/03/02 07:47:48;;;;;;;26.17;13.95;;;;;;;5.07;54.51;101721.72;4917611;29;20055;-75
2022/03/02 07:50:16;;;;;;;26.95;15.13;;;;;;;4.72;55.80;101733.72;4934884;29;20128;-74
2022/03/02 07:52:48;;;;;;;26.98;14.80;;;;;;;4.51;56.80;101723.97;4935317;29;20047;-70
2022/03/02 07:55:17;;;;;;;29.33;14.95;;;;;;;5.07;56.40;101729.84;4902500;29;20047;-71
2022/03/02 07:57:52;;;;;;;31.13;14.75;;;;;;;5.30;54.23;101717.66;4887136;29;20048;-71
2022/03/02 08:00:19;;;;;;;;;;;;;;;5.60;53.91;101720.63;4902838;29;20410;-71
2022/03/02 08:02:51;;;;;;;29.25;14.88;;;;;;;5.47;53.82;101726.97;4918254;29;19937;-71
2022/03/02 08:05:22;;;;;;;23.30;14.02;;;;;;;5.72;54.07;101725.38;4887012;29;20055;-71
2022/03/02 08:07:50;;;;;;;27.90;17.80;;;;;;;5.81;53.82;101717.81;4901808;29;20051;-71
2022/03/02 08:10:19;;;;;;;32.25;16.33;;;;;;;6.18;50.91;101720.69;4886766;29;20075;-70
2022/03/02 08:12:47;;;;;;;31.45;16.75;;;;;;;6.57;50.13;101726.81;4886826;29;20058;-70
2022/03/02 08:15:15;;;;;;;29.52;15.82;;;;;;;6.56;49.25;101719.69;4901981;29;20070;-71
2022/03/02 08:17:43;;;;;;;25.38;14.68;;;;;;;6.38;50.82;101717.78;4887042;29;20059;-71
2022/03/02 08:20:14;;;;;;;25.90;15.02;;;;;;;6.67;51.35;101707.25;4901956;29;20054;-71
2022/03/02 08:22:45;;;;;;;25.27;15.35;;;;;;;6.26;50.56;101714.94;4902301;29;20055;-71
2022/03/02 08:25:13;;;;;;;30.30;16.38;;;;;;;6.51;50.19;101710.53;4902056;29;20052;-72
2022/03/02 08:27:43;;;;;;;31.80;15.85;;;;;;;6.30;49.26;101707.16;4886906;29;20055;-71
2022/03/02 08:30:13;;;;;;;25.00;15.75;;;;;;;6.09;50.30;101706.53;4886636;29;20055;-70
2022/03/02 08:32:43;;;;;;;27.70;15.13;;;;;;;5.89;51.29;101706.66;4886259;29;20044;-70
2022/03/02 08:35:12;;;;;;;28.00;16.27;;;;;;;5.76;52.49;101702.13;4901962;29;20059;-70
2022/03/02 08:37:41;;;;;;;30.85;16.00;;;;;;;5.99;52.06;101700.72;4901713;29;20047;-70
2022/03/02 08:40:11;;;;;;;29.90;15.68;;;;;;;6.04;50.43;101695.50;4886452;29;20056;-70
2022/03/02 08:42:39;;;;;;;28.13;16.13;;;;;;;6.17;50.22;101687.22;4901614;29;20059;-71
2022/03/02 08:45:09;;;;;;;25.92;15.45;;;;;;;6.53;49.15;101692.09;4887213;29;20070;-71
2022/03/02 08:47:38;;;;;;;29.05;17.02;;;;;;;6.45;49.03;101691.34;4905581;29;20514;-71
2022/03/02 08:50:07;;;;;;;27.52;15.55;;;;;;;6.61;47.99;101691.81;4905343;29;20055;-71
2022/03/02 08:52:36;;;;;;;25.73;15.35;;;;;;;6.55;48.39;101693.53;4905108;29;20055;-71
2022/03/02 08:55:09;;;;;;;30.40;16.98;;;;;;;6.67;48.54;101690.94;4889401;29;20063;-70
2022/03/02 08:57:43;;;;;;;27.35;16.38;;;;;;;6.88;48.54;101690.69;4936828;29;20082;-70
2022/03/02 09:00:14;;;;;;;29.40;16.38;;;;;;;6.88;47.71;101687.97;4890137;29;20083;-69
2022/03/02 09:02:43;;;;;;;29.38;16.25;;;;;;;7.19;46.77;101686.13;4905426;29;20157;-70
2022/03/02 09:05:11;;;;;;;27.40;15.90;;;;;;;7.59;46.04;101685.56;4901873;29;20384;-70
2022/03/02 09:07:40;;;;;;;29.35;17.35;;;;;;;7.66;46.54;101688.16;4871549;29;20056;-70
2022/03/02 09:10:09;;;;;;;38.53;18.35;;;;;;;8.03;45.62;101684.47;4901717;29;20059;-70
2022/03/02 09:12:41;;;;;;;29.88;17.15;;;;;;;7.88;45.22;101671.28;4917844;29;20480;-70
2022/03/02 09:15:09;;;;;;;26.75;16.58;;;;;;;7.61;46.83;101666.25;4918648;29;20052;-70
2022/03/02 09:17:37;;;;;;;31.73;16.98;;;;;;;7.59;47.27;101665.66;4918510;29;20492;-70
2022/03/02 09:20:06;;;;;;;31.15;17.20;;;;;;;7.37;47.50;101666.16;4917684;29;20044;-71
2022/03/02 09:22:36;;;;;;;28.80;15.95;;;;;;;7.20;48.44;101669.56;4918761;29;20059;-70
2022/03/02 09:25:06;;;;;;;29.67;16.92;;;;;;;7.16;47.91;101671.06;4902222;29;20055;-69
2022/03/02 09:27:35;;;;;;;29.73;15.65;;;;;;;7.44;47.36;101675.09;4918737;29;20055;-69
2022/03/02 09:30:09;;;;;;;25.48;16.02;;;;;;;7.64;46.23;101671.25;4918594;29;20511;-69
2022/03/02 09:32:40;;;;;;;26.20;15.93;;;;;;;7.92;44.99;101661.59;4918486;29;20052;-67
2022/03/02 09:35:13;;;;;;;31.15;16.88;;;;;;;8.09;46.57;101658.13;4918563;29;20044;-68
2022/03/02 09:37:49;;;;;;;26.17;15.35;;;;;;;7.72;46.05;101668.16;4918430;29;20044;-68
2022/03/02 09:40:30;;;;;;;28.45;17.15;;;;;;;8.02;45.15;101667.25;4918494;29;20059;-68
2022/03/02 09:43:07;;;;;;;31.10;17.38;;;;;;;8.23;46.13;101653.28;4918424;29;20071;-69
2022/03/02 09:45:35;;;;;;;26.27;16.48;;;;;;;8.64;44.59;101670.59;4933208;29;20043;-81
2022/03/02 09:48:04;;;;;;;25.58;15.82;;;;;;;8.40;44.52;101664.31;4918217;29;20503;-84
2022/03/02 09:50:35;;;;;;;29.42;15.48;;;;;;;8.37;44.48;101668.34;4918119;29;20052;-81
2022/03/02 09:53:08;;;;;;;28.08;16.25;;;;;;;8.30;45.66;101657.56;4901803;29;20060;-81
2022/03/02 09:55:36;;;;;;;25.97;16.23;;;;;;;8.39;46.45;101660.75;4886198;29;20044;-82
2022/03/02 09:58:06;;;;;;;28.67;16.23;;;;;;;8.43;45.11;101661.09;4886055;29;20783;-81
2022/03/02 10:00:35;;;;;;;29.08;16.08;;;;;;;8.46;45.31;101660.63;4901616;29;20483;-81
2022/03/02 10:03:10;;;;;;;25.17;15.35;;;;;;;8.73;44.01;101646.50;4886460;29;20056;-81
2022/03/02 10:05:44;;;;;;;23.42;14.65;;;;;;;9.25;42.78;101642.03;4882450;29;20052;-81
2022/03/02 10:08:14;;;;;;;25.43;15.53;;;;;;;9.10;43.14;101640.66;4882822;29;20076;-80
2022/03/02 10:10:42;;;;;;;24.17;14.90;;;;;;;8.95;44.28;101632.19;4882474;29;20305;-81
2022/03/02 10:13:12;;;;;;;29.27;15.77;;;;;;;9.09;43.04;101627.28;4883825;29;20060;-81
2022/03/02 10:15:41;;;;;;;23.52;14.65;;;;;;;9.36;43.01;101626.66;4883593;29;20057;-81
2022/03/02 10:18:12;;;;;;;24.95;15.65;;;;;;;9.51;41.96;101621.47;4895709;29;20063;-81
2022/03/02 10:20:49;;;;;;;23.92;15.93;;;;;;;9.84;40.89;101626.34;4908724;29;20044;-81
2022/03/02 10:23:24;;;;;;;27.35;15.77;;;;;;;9.40;41.49;101620.44;4879578;29;20049;-81
2022/03/02 10:26:15;;;;;;;26.02;15.85;;;;;;;9.71;41.54;101616.56;4900974;29;20480;-81
2022/03/02 10:28:53;;;;;;;25.17;15.63;;;;;;;9.93;40.52;101608.47;4881807;29;20133;-81
2022/03/02 10:31:56;;;;;;;25.10;15.55;;;;;;;10.24;39.78;101611.66;4882255;29;20045;-77
2022/03/02 10:34:27;;;;;;;24.38;15.43;;;;;;;9.92;40.90;101609.56;4885941;29;20407;-80
2022/03/02 10:37:13;;;;;;;27.52;15.13;;;;;;;9.12;41.88;101605.75;4898895;29;20439;-80
2022/03/02 10:39:50;;;;;;;27.50;16.13;;;;;;;9.41;42.81;101594.81;4888132;29;20047;-80
2022/03/02 10:42:29;;;;;;;23.52;15.18;;;;;;;9.87;43.41;101593.06;4897892;29;20424;-81
2022/03/02 10:45:06;;;;;;;24.50;16.02;;;;;;;9.97;42.36;101586.91;4899026;29;20057;-80
2022/03/02 10:47:46;;;;;;;30.73;16.35;;;;;;;10.12;41.67;101584.38;4897768;29;20071;-81
2022/03/02 10:50:14;;;;;;;26.23;15.98;;;;;;;10.28;41.85;101587.34;4898485;29;20091;-80
2022/03/02 10:52:47;;;;;;;24.77;16.30;;;;;;;10.37;39.77;101580.38;4898209;29;20079;-81
2022/03/02 10:55:16;;;;;;;28.10;15.63;;;;;;;10.80;40.89;101574.31;4892770;29;20044;-80
2022/03/02 10:57:47;;;;;;;24.42;15.60;;;;;;;10.60;40.11;101571.09;4901373;29;20037;-81
2022/03/02 11:00:19;;;;;;;29.50;16.42;;;;;;;10.77;41.95;101564.72;4897890;29;20056;-81
2022/03/02 11:02:50;;;;;;;24.70;15.38;;;;;;;10.72;39.49;101559.97;4898309;29;20060;-81
2022/03/02 11:05:18;;;;;;;25.42;16.13;;;;;;;10.67;39.39;101554.47;4930169;29;20054;-81
2022/03/02 11:07:47;;;;;;;32.30;19.13;;;;;;;10.91;39.95;101548.69;4935103;29;20052;-81
2022/03/02 11:10:21;;;;;;;24.23;15.32;;;;;;;10.35;39.98;101552.41;4935173;29;20047;-81
2022/03/02 11:12:50;;;;;;;26.95;15.63;;;;;;;10.85;39.88;101544.25;4935290;29;20063;-81
2022/03/02 11:15:19;;;;;;;22.83;15.18;;;;;;;11.00;39.31;101544.41;4935100;29;20063;-81
2022/03/02 11:17:59;;;;;;;24.83;14.85;;;;;;;11.71;39.37;101538.94;4935061;29;20052;-81
2022/03/02 11:20:30;;;;;;;25.60;14.43;;;;;;;11.92;37.66;101534.41;4936107;29;20059;-81
2022/03/02 11:23:02;;;;;;;23.98;13.95;;;;;;;11.36;37.76;101527.47;4935400;29;20764;-81
2022/03/02 11:25:46;;;;;;;21.77;14.75;;;;;;;11.70;37.61;101521.66;4935807;29;20048;-81
2022/03/02 11:28:17;;;;;;;23.37;14.57;;;;;;;11.32;37.80;101512.63;4935837;29;20051;-81
2022/03/02 11:30:51;;;;;;;25.67;15.93;;;;;;;10.84;38.47;101515.19;4936051;29;20044;-81